Time;durP1;ratioP1;P1;durP2;ratioP2;P2;SDS_P1;SDS_P2;PMS_P1;PMS_P2;Temp;Humidity;BMP_temperature;BMP_pressure;BME280_temperature;BME280_humidity;BME280_pressure;Samples;Min_cycle;Max_cycle;Signal;HPM_P1;HPM_P2
2022/10/08 00:00:09;;;;;;;7.80;3.23;;;;;;;7.87;99.05;101112.78;5074676;28;20465;-69
2022/10/08 00:02:35;;;;;;;13.00;3.03;;;;;;;7.98;97.88;101095.53;5075676;28;20464;-69
2022/10/08 00:05:02;;;;;;;9.10;3.47;;;;;;;7.97;98.11;101104.66;5074270;28;20461;-69
2022/10/08 00:07:28;;;;;;;8.10;3.00;;;;;;;7.93;98.13;101106.31;5075336;28;20514;-70
2022/10/08 00:09:56;;;;;;;7.03;3.67;;;;;;;7.80;99.09;101105.78;5074572;28;20452;-69
2022/10/08 00:12:22;;;;;;;7.77;3.87;;;;;;;7.89;99.19;101105.25;5071683;28;20461;-69
2022/10/08 00:14:49;;;;;;;8.37;3.43;;;;;;;7.93;98.02;101099.03;5074812;28;20825;-70
2022/10/08 00:17:15;;;;;;;11.17;4.70;;;;;;;7.90;97.99;101101.47;5075000;28;20445;-70
2022/10/08 00:19:42;;;;;;;9.43;4.30;;;;;;;7.90;97.20;101099.56;5075155;28;20485;-70
2022/10/08 00:22:08;;;;;;;7.70;3.90;;;;;;;7.89;97.02;101097.97;5073893;28;20481;-70
2022/10/08 00:24:34;;;;;;;9.30;4.23;;;;;;;7.82;95.61;101098.22;5075143;28;20465;-70
2022/10/08 00:27:02;;;;;;;7.97;3.90;;;;;;;7.79;95.11;101100.63;5074243;28;20456;-70
2022/10/08 00:29:29;;;;;;;10.23;4.30;;;;;;;7.62;94.89;101092.81;5075140;28;20437;-70
2022/10/08 00:31:55;;;;;;;6.07;3.10;;;;;;;7.62;96.09;101092.03;5073263;28;20825;-70
2022/10/08 00:34:23;;;;;;;8.10;3.77;;;;;;;7.64;95.93;101089.84;5073111;28;20485;-69
2022/10/08 00:36:51;;;;;;;6.37;3.33;;;;;;;7.67;96.66;101089.31;5074061;28;20464;-69
2022/10/08 00:39:20;;;;;;;6.07;2.30;;;;;;;7.75;96.55;101092.28;5074111;28;20843;-69
2022/10/08 00:41:48;;;;;;;7.93;2.70;;;;;;;7.76;96.51;101088.50;5074926;28;20437;-70
2022/10/08 00:44:51;;;;;;;7.50;3.00;;;;;;;7.80;96.65;101086.91;5073500;28;20476;-70
2022/10/08 00:47:19;;;;;;;10.90;3.40;;;;;;;7.85;96.76;101080.69;5074790;28;20437;-70
2022/10/08 00:49:48;;;;;;;6.63;3.10;;;;;;;7.90;97.20;101079.88;5074011;28;20642;-70
2022/10/08 00:52:16;;;;;;;8.57;3.47;;;;;;;7.89;97.17;101075.56;5074721;28;20864;-69
2022/10/08 00:54:42;;;;;;;9.27;3.73;;;;;;;7.86;97.58;101079.59;5073604;28;20481;-70
2022/10/08 00:57:09;;;;;;;7.00;3.10;;;;;;;7.95;97.34;101075.28;5074684;28;20441;-70
2022/10/08 00:59:37;;;;;;;8.73;4.20;;;;;;;8.06;97.06;101065.31;5073549;28;21004;-70
2022/10/08 01:02:07;;;;;;;8.80;3.70;;;;;;;8.06;97.11;101078.78;5073280;28;20445;-70
2022/10/08 01:04:34;;;;;;;9.67;3.30;;;;;;;8.10;96.69;101063.66;5071039;28;20481;-70
2022/10/08 01:07:08;;;;;;;9.80;3.17;;;;;;;8.11;96.88;101065.28;5074119;28;20440;-70
2022/10/08 01:09:41;;;;;;;6.70;3.00;;;;;;;8.00;95.73;101069.06;5073537;28;20433;-70
2022/10/08 01:12:15;;;;;;;8.47;3.90;;;;;;;7.91;95.55;101066.13;5074314;28;20433;-70
2022/10/08 01:14:48;;;;;;;11.53;4.27;;;;;;;7.88;95.60;101063.16;5073650;28;20805;-70
2022/10/08 01:17:25;;;;;;;6.60;3.10;;;;;;;7.88;94.43;101057.75;5074321;28;20460;-70
2022/10/08 01:20:19;;;;;;;7.43;3.20;;;;;;;7.77;94.86;101063.16;5072862;28;20473;-70
2022/10/08 01:23:21;;;;;;;6.37;3.40;;;;;;;7.79;95.13;101055.63;5074171;28;20526;-70
2022/10/08 01:25:56;;;;;;;5.93;2.67;;;;;;;7.74;95.83;101058.28;5072298;28;20460;-70
2022/10/08 01:28:32;;;;;;;8.00;3.27;;;;;;;7.82;95.78;101055.06;5072592;28;20539;-70
2022/10/08 01:31:05;;;;;;;6.27;3.00;;;;;;;7.89;96.90;101054.00;5074154;28;20490;-70
2022/10/08 01:33:35;;;;;;;11.10;3.70;;;;;;;7.93;97.19;101057.78;5071517;28;20530;-70
2022/10/08 01:36:04;;;;;;;11.00;3.57;;;;;;;7.98;97.81;101057.75;5072725;28;20461;-70
2022/10/08 01:38:34;;;;;;;7.23;3.43;;;;;;;8.05;98.40;101059.06;5073792;28;20485;-70
2022/10/08 01:41:06;;;;;;;8.30;3.20;;;;;;;7.92;100.00;101062.31;5072044;28;20946;-71
2022/10/08 01:43:38;;;;;;;6.43;2.87;;;;;;;7.99;100.00;101048.59;5073615;28;20495;-70
2022/10/08 01:46:09;;;;;;;7.20;2.97;;;;;;;8.09;99.67;101045.84;5072504;28;20458;-70
2022/10/08 01:48:38;;;;;;;5.90;2.80;;;;;;;8.11;99.69;101046.41;5073771;28;20429;-70
2022/10/08 01:51:08;;;;;;;8.90;3.20;;;;;;;8.09;100.00;101041.25;5072728;28;20464;-70
2022/10/08 01:53:40;;;;;;;11.63;3.87;;;;;;;8.26;99.52;101042.84;5072630;28;20488;-70
2022/10/08 01:56:10;;;;;;;8.50;3.87;;;;;;;8.25;99.36;101039.34;5073171;28;20461;-70
2022/10/08 01:58:48;;;;;;;7.57;2.90;;;;;;;8.20;98.29;101033.97;5073562;28;20469;-69
2022/10/08 02:01:21;;;;;;;7.67;3.63;;;;;;;8.06;98.02;101030.22;5072748;28;20452;-69
2022/10/08 02:06:35;;;;;;;5.50;3.10;;;;;;;8.00;96.86;101026.72;5071103;28;20449;-69
2022/10/08 02:09:03;;;;;;;7.70;3.27;;;;;;;7.93;96.38;101033.50;5073146;28;20784;-70
2022/10/08 02:11:30;;;;;;;7.30;2.67;;;;;;;7.91;96.41;101032.94;5072882;28;20522;-70
2022/10/08 02:13:57;;;;;;;6.00;2.60;;;;;;;7.86;97.04;101019.47;5072035;28;20484;-70
2022/10/08 02:16:28;;;;;;;6.03;2.90;;;;;;;7.92;96.22;101026.47;5072982;28;20957;-70
2022/10/08 02:19:01;;;;;;;8.87;2.83;;;;;;;7.90;96.81;101017.84;5072202;28;20523;-70
2022/10/08 02:21:29;;;;;;;9.23;3.80;;;;;;;7.97;98.24;101015.66;5073377;28;20426;-70
2022/10/08 02:24:02;;;;;;;7.90;3.60;;;;;;;8.02;98.78;101010.28;5071953;28;20568;-69
2022/10/08 02:26:33;;;;;;;7.83;2.93;;;;;;;8.04;99.53;101025.09;5073256;28;20433;-70
2022/10/08 02:29:04;;;;;;;7.10;2.80;;;;;;;8.10;99.84;101017.78;5072680;28;20452;-69
2022/10/08 02:31:39;;;;;;;6.17;3.13;;;;;;;8.20;99.75;101012.38;5073047;28;20781;-69
2022/10/08 02:34:12;;;;;;;6.80;2.97;;;;;;;8.26;99.90;101018.56;5071681;28;20488;-69
2022/10/08 02:36:42;;;;;;;7.47;3.30;;;;;;;8.25;100.00;101025.84;5072927;28;20801;-69
2022/10/08 02:39:11;;;;;;;7.20;3.10;;;;;;;8.23;100.00;101017.22;5072379;28;21055;-69
2022/10/08 02:41:42;;;;;;;7.37;2.80;;;;;;;8.27;100.00;101018.28;5073063;28;20520;-74
2022/10/08 02:44:16;;;;;;;8.00;2.97;;;;;;;8.32;100.00;101023.69;5071849;28;20487;-73
2022/10/08 02:46:47;;;;;;;7.13;2.90;;;;;;;8.29;100.00;101018.84;5073122;28;20426;-69
2022/10/08 02:49:18;;;;;;;6.17;2.40;;;;;;;8.25;99.02;101022.34;5059396;28;20819;-69
2022/10/08 02:51:48;;;;;;;6.70;2.80;;;;;;;8.23;99.24;101022.59;5053000;28;20434;-69
2022/10/08 02:54:18;;;;;;;8.73;3.40;;;;;;;8.20;98.02;101023.19;5064710;28;20473;-68
2022/10/08 02:56:49;;;;;;;8.00;3.73;;;;;;;8.19;97.42;101010.78;5074617;28;20414;-69
2022/10/08 02:59:20;;;;;;;7.80;3.00;;;;;;;8.21;98.69;101018.59;5075916;28;20473;-69
2022/10/08 03:01:50;;;;;;;10.00;3.77;;;;;;;8.25;99.55;101025.84;5076908;28;20435;-69
2022/10/08 03:04:22;;;;;;;6.73;2.97;;;;;;;8.25;99.66;101025.84;5074936;28;20507;-69
2022/10/08 03:06:51;;;;;;;9.00;4.00;;;;;;;8.33;99.64;101029.88;5076855;28;20828;-69
2022/10/08 03:09:20;;;;;;;7.23;3.63;;;;;;;8.27;99.99;101029.06;5075545;28;20457;-69
2022/10/08 03:11:46;;;;;;;9.60;4.50;;;;;;;8.24;100.00;101028.84;5076655;28;20495;-69
2022/10/08 03:14:15;;;;;;;10.57;4.00;;;;;;;8.17;100.00;101026.41;5076065;28;20517;-69
2022/10/08 03:16:46;;;;;;;7.20;3.00;;;;;;;8.22;100.00;101026.41;5076305;28;20942;-69
2022/10/08 03:19:14;;;;;;;16.13;3.53;;;;;;;8.25;100.00;101030.44;5075018;28;21008;-69
2022/10/08 03:21:42;;;;;;;8.60;3.30;;;;;;;8.23;98.76;101032.59;5076145;28;20448;-69
2022/10/08 03:24:10;;;;;;;8.27;3.27;;;;;;;8.19;97.48;101031.53;5075631;28;20485;-69
2022/10/08 03:26:37;;;;;;;10.27;3.70;;;;;;;8.11;96.77;101030.22;5075658;28;20530;-69
2022/10/08 03:29:04;;;;;;;5.73;2.57;;;;;;;8.08;96.77;101034.25;5075303;28;20462;-69
2022/10/08 03:31:31;;;;;;;6.93;2.73;;;;;;;8.06;96.82;101036.44;5076374;28;20456;-69
2022/10/08 03:34:00;;;;;;;5.67;2.80;;;;;;;8.14;96.36;101040.44;5068789;28;20555;-69
2022/10/08 03:36:26;;;;;;;8.23;3.43;;;;;;;8.09;98.26;101037.75;5056005;28;21085;-69
2022/10/08 03:38:53;;;;;;;8.87;3.40;;;;;;;8.12;99.04;101037.22;5061021;28;20485;-69
2022/10/08 03:41:21;;;;;;;9.10;3.83;;;;;;;8.21;99.50;101030.19;5075772;28;20438;-69
2022/10/08 03:43:47;;;;;;;20.93;3.70;;;;;;;8.23;100.00;101035.28;5074885;28;20547;-69
2022/10/08 03:46:15;;;;;;;7.90;3.03;;;;;;;8.27;100.00;101031.78;5076086;28;20507;-69
2022/10/08 03:48:42;;;;;;;6.50;2.73;;;;;;;8.29;100.00;101032.31;5074605;28;20876;-69
2022/10/08 03:51:12;;;;;;;9.37;3.30;;;;;;;8.40;100.00;101029.63;5076070;28;20445;-69
2022/10/08 03:53:40;;;;;;;9.40;4.40;;;;;;;8.42;100.00;101020.16;5075345;28;20524;-69
2022/10/08 03:56:10;;;;;;;5.60;3.00;;;;;;;8.54;100.00;101017.13;5075589;28;21004;-68
2022/10/08 03:58:36;;;;;;;11.47;3.10;;;;;;;8.63;100.00;101017.38;5074773;28;20458;-68
2022/10/08 04:01:06;;;;;;;7.73;3.50;;;;;;;8.64;100.00;101021.72;5074589;28;20461;-69
2022/10/08 04:03:33;;;;;;;6.80;2.90;;;;;;;8.61;100.00;101022.25;5075111;28;20485;-69
2022/10/08 04:06:00;;;;;;;7.47;3.20;;;;;;;8.65;100.00;101018.72;5075273;28;20957;-69
2022/10/08 04:08:27;;;;;;;6.43;3.00;;;;;;;8.68;100.00;101020.06;5074742;28;20465;-70
2022/10/08 04:10:54;;;;;;;5.80;2.60;;;;;;;8.68;99.60;101018.19;5074375;28;20451;-70
2022/10/08 04:13:21;;;;;;;8.20;3.10;;;;;;;8.66;99.00;101017.63;5075204;28;21031;-70
2022/10/08 04:15:49;;;;;;;5.90;2.60;;;;;;;8.63;98.62;101014.66;5074940;28;20527;-70
2022/10/08 04:18:16;;;;;;;7.73;2.67;;;;;;;8.64;98.64;101019.81;5075538;28;20472;-70
2022/10/08 04:20:43;;;;;;;7.10;2.97;;;;;;;8.62;98.81;101018.47;5074345;28;20496;-69
2022/10/08 04:23:10;;;;;;;9.97;3.67;;;;;;;8.58;99.11;101012.81;5075019;28;21048;-70
2022/10/08 04:25:38;;;;;;;5.53;2.67;;;;;;;8.61;99.89;101014.97;5074756;28;20468;-70
2022/10/08 04:28:05;;;;;;;6.90;3.27;;;;;;;8.62;100.00;101021.16;5074846;28;20465;-70
2022/10/08 04:30:32;;;;;;;8.00;3.60;;;;;;;8.69;100.00;101027.09;5074304;28;20445;-69
2022/10/08 04:32:59;;;;;;;8.00;3.57;;;;;;;8.77;100.00;101021.91;5074421;28;20515;-69
2022/10/08 04:35:25;;;;;;;5.90;3.30;;;;;;;8.78;100.00;101025.41;5074925;28;20847;-70
2022/10/08 04:37:52;;;;;;;8.20;3.63;;;;;;;8.78;100.00;101026.22;5074242;28;20825;-69
2022/10/08 04:40:18;;;;;;;6.80;2.87;;;;;;;8.77;100.00;101019.22;5074965;28;20485;-69
2022/10/08 04:42:50;;;;;;;7.67;3.80;;;;;;;8.77;100.00;101018.41;5073870;28;20469;-69
2022/10/08 04:45:16;;;;;;;7.73;3.70;;;;;;;8.76;100.00;101016.78;5074997;28;20471;-69
2022/10/08 04:47:43;;;;;;;7.00;3.27;;;;;;;8.78;100.00;101026.22;5073660;28;20495;-69
2022/10/08 04:50:09;;;;;;;6.17;2.90;;;;;;;8.73;100.00;101025.44;5074908;28;20781;-69
2022/10/08 04:52:36;;;;;;;6.40;3.10;;;;;;;8.72;100.00;101030.03;5072479;28;20491;-69
2022/10/08 04:55:02;;;;;;;7.10;3.37;;;;;;;8.71;100.00;101025.69;5074661;28;20468;-69
2022/10/08 04:57:29;;;;;;;6.77;3.37;;;;;;;8.72;100.00;101026.50;5071816;28;20484;-69
2022/10/08 04:59:56;;;;;;;8.40;3.97;;;;;;;8.66;100.00;101025.72;5074249;28;20528;-69
2022/10/08 05:02:23;;;;;;;7.30;3.80;;;;;;;8.51;99.63;101017.72;5072863;28;20476;-69
2022/10/08 05:04:49;;;;;;;8.47;3.63;;;;;;;8.47;99.11;101016.66;5074445;28;20465;-69
2022/10/08 05:07:16;;;;;;;9.13;4.03;;;;;;;8.43;98.26;101016.38;5073267;28;20476;-69
2022/10/08 05:09:42;;;;;;;6.53;3.10;;;;;;;8.41;98.18;101028.53;5074423;28;20437;-69
2022/10/08 05:12:08;;;;;;;10.47;3.17;;;;;;;8.33;98.07;101022.59;5072743;28;20461;-69
2022/10/08 05:14:35;;;;;;;8.37;3.37;;;;;;;8.33;97.73;101022.59;5074211;28;20457;-69
2022/10/08 05:17:02;;;;;;;11.30;4.17;;;;;;;8.25;97.63;101025.84;5073524;28;20464;-69
2022/10/08 05:19:29;;;;;;;7.03;3.17;;;;;;;8.22;97.98;101021.00;5073534;28;20541;-69
2022/10/08 05:21:55;;;;;;;10.53;3.73;;;;;;;8.25;98.82;101015.06;5072987;28;20462;-69
2022/10/08 05:24:22;;;;;;;8.90;3.07;;;;;;;8.14;100.00;101024.25;5074148;28;20461;-69
2022/10/08 05:26:50;;;;;;;9.40;3.67;;;;;;;8.23;100.00;101022.59;5072251;28;20453;-69
2022/10/08 05:29:18;;;;;;;20.53;3.17;;;;;;;8.34;100.00;101018.81;5072915;28;20507;-69
2022/10/08 05:31:44;;;;;;;6.93;3.20;;;;;;;8.35;100.00;101015.03;5072831;28;20457;-69
2022/10/08 05:34:13;;;;;;;11.97;3.77;;;;;;;8.37;100.00;101028.28;5072903;28;20476;-69
2022/10/08 05:36:40;;;;;;;7.23;3.27;;;;;;;8.39;100.00;101028.81;5072618;28;20511;-69
2022/10/08 05:39:07;;;;;;;7.27;3.03;;;;;;;8.40;100.00;101027.72;5072842;28;20809;-69
2022/10/08 05:41:36;;;;;;;6.10;2.77;;;;;;;8.40;100.00;101032.31;5070852;28;20985;-68
2022/10/08 05:44:03;;;;;;;8.10;3.47;;;;;;;8.45;100.00;101025.00;5072753;28;20560;-69
2022/10/08 05:46:31;;;;;;;6.50;3.13;;;;;;;8.48;100.00;101029.06;5072983;28;20442;-72
2022/10/08 05:49:00;;;;;;;7.40;3.33;;;;;;;8.46;100.00;101036.63;5071564;28;20825;-71
2022/10/08 05:51:29;;;;;;;7.13;3.03;;;;;;;8.45;100.00;101035.00;5071422;28;20461;-69
2022/10/08 05:53:56;;;;;;;7.43;3.80;;;;;;;8.51;100.00;101034.72;5072612;28;20464;-69
2022/10/08 05:56:25;;;;;;;8.10;3.40;;;;;;;8.55;100.00;101029.56;5069591;28;20822;-72
2022/10/08 05:58:51;;;;;;;5.97;2.73;;;;;;;8.50;100.00;101037.66;5070758;28;20850;-72
2022/10/08 06:01:20;;;;;;;6.70;2.60;;;;;;;8.40;100.00;101043.13;5071497;28;20485;-69
2022/10/08 06:03:49;;;;;;;6.57;2.80;;;;;;;8.39;99.41;101036.09;5072611;28;20456;-69
2022/10/08 06:06:15;;;;;;;9.03;3.17;;;;;;;8.27;98.67;101045.28;5070379;28;20954;-69
2022/10/08 06:08:43;;;;;;;9.30;3.73;;;;;;;8.28;98.32;101040.72;5072335;28;20847;-69
2022/10/08 06:11:10;;;;;;;6.27;2.67;;;;;;;8.23;97.85;101036.09;5071374;28;20805;-69
2022/10/08 06:13:36;;;;;;;7.93;2.80;;;;;;;8.20;97.98;101036.66;5072520;28;20461;-69
2022/10/08 06:16:06;;;;;;;7.10;2.80;;;;;;;8.22;99.36;101041.78;5070751;28;20457;-69
2022/10/08 06:18:34;;;;;;;10.97;3.23;;;;;;;8.26;100.00;101038.25;5072556;28;20445;-69
2022/10/08 06:21:02;;;;;;;8.40;3.50;;;;;;;8.32;100.00;101042.59;5071316;28;20923;-69
2022/10/08 06:23:28;;;;;;;9.40;2.70;;;;;;;8.32;100.00;101047.97;5070751;28;20896;-70
2022/10/08 06:25:56;;;;;;;7.63;3.30;;;;;;;8.43;100.00;101042.56;5072119;28;21092;-72
2022/10/08 06:28:23;;;;;;;7.53;3.93;;;;;;;8.48;100.00;101050.66;5069723;28;20843;-69
2022/10/08 06:30:49;;;;;;;6.73;2.73;;;;;;;8.54;100.00;101052.22;5071150;28;20495;-68
2022/10/08 06:33:16;;;;;;;7.43;3.27;;;;;;;8.57;100.00;101057.09;5034158;28;1062419;-68
2022/10/08 06:35:42;;;;;;;10.37;3.00;;;;;;;8.66;100.00;101058.13;5073286;28;20203;-68
2022/10/08 06:38:08;;;;;;;7.20;3.17;;;;;;;8.77;100.00;101054.31;5071471;28;20462;-68
2022/10/08 06:40:37;;;;;;;7.17;3.43;;;;;;;8.91;100.00;101059.13;5073038;28;20534;-68
2022/10/08 06:43:07;;;;;;;10.53;4.50;;;;;;;9.13;100.00;101053.31;5072100;28;20477;-68
2022/10/08 06:45:37;;;;;;;7.77;3.40;;;;;;;9.43;100.00;101055.00;5073113;28;20532;-68
2022/10/08 06:48:04;;;;;;;11.77;4.40;;;;;;;9.65;100.00;101054.56;5069674;28;20465;-68
2022/10/08 06:50:30;;;;;;;11.30;3.57;;;;;;;9.86;100.00;101051.41;5073068;28;20437;-68
2022/10/08 06:52:57;;;;;;;7.60;4.30;;;;;;;10.02;100.00;101057.50;5072311;28;20457;-67
2022/10/08 06:55:23;;;;;;;7.70;3.70;;;;;;;10.17;100.00;101048.41;5073007;28;20469;-68
2022/10/08 06:57:49;;;;;;;8.60;4.73;;;;;;;10.28;100.00;101051.84;5068404;28;20466;-68
2022/10/08 07:00:18;;;;;;;7.87;3.80;;;;;;;10.40;100.00;101054.94;5072150;28;20495;-68
2022/10/08 07:02:45;;;;;;;9.47;3.43;;;;;;;10.51;100.00;101059.16;5070912;28;20462;-68
2022/10/08 07:05:12;;;;;;;13.60;3.90;;;;;;;10.58;100.00;101067.75;5072778;28;20437;-68
2022/10/08 07:07:38;;;;;;;13.23;3.17;;;;;;;10.67;100.00;101062.50;5072536;28;20961;-68
2022/10/08 07:10:05;;;;;;;7.40;3.10;;;;;;;10.77;100.00;101070.50;5072816;28;20449;-68
2022/10/08 07:12:31;;;;;;;6.53;3.00;;;;;;;10.84;100.00;101067.44;5072467;28;20961;-68
2022/10/08 07:14:58;;;;;;;8.90;3.90;;;;;;;10.97;100.00;101068.63;5072536;28;20469;-67
2022/10/08 07:17:27;;;;;;;10.87;3.20;;;;;;;11.05;100.00;101084.22;5072801;28;20464;-67
2022/10/08 07:19:54;;;;;;;10.27;3.77;;;;;;;11.23;100.00;101091.56;5072390;28;20823;-68
2022/10/08 07:22:20;;;;;;;5.83;2.50;;;;;;;11.45;100.00;101087.47;5072747;28;20444;-68
2022/10/08 07:24:47;;;;;;;7.37;2.90;;;;;;;11.68;100.00;101093.88;5072588;28;20469;-68
2022/10/08 07:27:13;;;;;;;10.63;3.13;;;;;;;11.77;100.00;101090.19;5072637;28;20449;-68
2022/10/08 07:29:40;;;;;;;8.40;3.00;;;;;;;11.88;100.00;101093.59;5072796;28;20442;-68
2022/10/08 07:32:06;;;;;;;10.60;3.10;;;;;;;12.05;100.00;101098.47;5072646;28;20804;-67
2022/10/08 07:34:34;;;;;;;8.43;2.60;;;;;;;12.14;100.00;101096.69;5072223;28;20484;-68
2022/10/08 07:37:00;;;;;;;8.97;3.20;;;;;;;12.29;100.00;101107.25;5072529;28;20441;-68
2022/10/08 07:39:27;;;;;;;15.60;3.77;;;;;;;12.41;98.47;101097.84;5072570;28;20487;-68
2022/10/08 07:41:54;;;;;;;12.00;2.80;;;;;;;12.55;97.64;101104.06;5072955;28;20483;-68
2022/10/08 07:44:20;;;;;;;6.73;2.93;;;;;;;12.68;97.48;101102.47;5075915;28;20973;-68
2022/10/08 07:46:48;;;;;;;7.97;2.63;;;;;;;12.79;96.63;101103.88;5075981;28;20445;-68
2022/10/08 07:49:19;;;;;;;6.17;2.60;;;;;;;13.04;94.03;101110.69;5073180;28;20461;-68
2022/10/08 07:51:47;;;;;;;6.43;2.60;;;;;;;13.08;94.05;101111.69;5075253;28;20458;-68
2022/10/08 07:54:16;;;;;;;10.13;3.47;;;;;;;13.17;94.39;101120.75;5071380;28;20485;-68
2022/10/08 07:56:42;;;;;;;7.50;2.50;;;;;;;13.26;92.67;101116.22;5075485;28;20942;-69
2022/10/08 07:59:13;;;;;;;9.20;2.50;;;;;;;13.33;92.98;101124.78;5074538;28;20457;-69
2022/10/08 08:01:40;;;;;;;11.60;2.20;;;;;;;13.48;92.33;101131.00;5077332;28;20473;-71
2022/10/08 08:04:08;;;;;;;5.33;2.17;;;;;;;13.60;90.54;101123.91;5074057;28;20480;-71
2022/10/08 08:06:39;;;;;;;4.80;1.97;;;;;;;13.76;89.99;101128.97;5060812;28;20447;-70
2022/10/08 08:09:07;;;;;;;6.37;2.23;;;;;;;13.80;89.63;101122.59;5066494;28;20523;-70
2022/10/08 08:11:34;;;;;;;5.00;2.00;;;;;;;13.78;89.85;101126.75;5075577;28;20442;-70
2022/10/08 08:14:00;;;;;;;8.80;2.53;;;;;;;13.83;89.60;101124.72;5074398;28;21056;-71
2022/10/08 08:16:28;;;;;;;6.30;2.10;;;;;;;14.07;87.93;101120.84;5074055;28;20942;-70
2022/10/08 08:18:56;;;;;;;13.63;2.20;;;;;;;14.09;87.78;101124.09;5075533;28;20433;-71
2022/10/08 08:21:25;;;;;;;5.73;1.80;;;;;;;14.17;87.72;101126.06;5073949;28;21005;-69
2022/10/08 08:23:53;;;;;;;6.23;1.90;;;;;;;14.33;87.20;101129.19;5075428;28;20469;-69
2022/10/08 08:26:22;;;;;;;8.10;2.20;;;;;;;14.48;84.84;101122.53;5073878;28;20457;-69
2022/10/08 08:28:53;;;;;;;4.70;1.80;;;;;;;14.52;85.73;101127.06;5074497;28;20473;-69
2022/10/08 08:31:22;;;;;;;3.83;1.40;;;;;;;14.65;84.52;101128.06;5075569;28;20421;-70
2022/10/08 08:33:49;;;;;;;7.30;1.43;;;;;;;14.81;84.00;101123.81;5073792;28;20498;-70
2022/10/08 08:36:16;;;;;;;4.77;1.80;;;;;;;14.86;83.75;101134.56;5073891;28;20573;-70
2022/10/08 08:38:43;;;;;;;14.00;2.67;;;;;;;14.85;84.07;101132.97;5075042;28;20448;-70
2022/10/08 08:41:27;;;;;;;7.00;1.93;;;;;;;14.93;83.54;101130.59;5073944;28;20486;-69
2022/10/08 08:43:58;;;;;;;6.53;1.67;;;;;;;15.07;83.80;101134.78;5055295;28;20461;-70
2022/10/08 08:46:25;;;;;;;8.10;2.63;;;;;;;15.20;81.47;101141.25;5057661;28;20453;-70
2022/10/08 08:48:55;;;;;;;6.70;1.80;;;;;;;15.21;82.22;101144.75;5055037;28;20939;-70
2022/10/08 08:51:22;;;;;;;5.37;1.90;;;;;;;15.21;82.96;101142.84;5057638;28;20458;-70
2022/10/08 08:53:48;;;;;;;5.20;1.70;;;;;;;15.32;83.06;101143.34;5072451;28;20478;-69
2022/10/08 08:56:19;;;;;;;6.60;2.33;;;;;;;15.37;81.19;101152.19;5071947;28;20468;-70
2022/10/08 08:58:57;;;;;;;6.23;1.60;;;;;;;15.50;80.85;101147.69;5074018;28;20422;-70
2022/10/08 09:01:32;;;;;;;7.63;2.50;;;;;;;15.62;80.66;101147.84;5074605;28;20556;-70
2022/10/08 09:04:07;;;;;;;6.67;2.40;;;;;;;15.71;80.80;101150.63;5073580;28;20534;-70
2022/10/08 09:06:35;;;;;;;6.73;2.63;;;;;;;15.84;78.69;101160.56;5070294;28;20448;-69
2022/10/08 09:09:07;;;;;;;4.50;1.90;;;;;;;15.95;78.62;101152.06;5074198;28;21029;-70
2022/10/08 09:11:33;;;;;;;7.40;2.17;;;;;;;15.89;78.27;101174.09;5062391;28;20496;-70
2022/10/08 09:14:15;;;;;;;8.13;2.67;;;;;;;15.86;78.77;101168.47;5058078;28;20530;-70
2022/10/08 09:16:41;;;;;;;12.20;2.90;;;;;;;15.86;80.00;101176.66;5072762;28;20954;-70
2022/10/08 09:19:09;;;;;;;6.73;2.07;;;;;;;15.76;79.48;101166.88;5073295;28;20457;-70
2022/10/08 09:21:35;;;;;;;6.70;1.87;;;;;;;15.72;79.86;101170.56;5073808;28;21016;-70
2022/10/08 09:24:02;;;;;;;8.23;1.87;;;;;;;15.79;79.92;101163.47;5073110;28;20477;-70
2022/10/08 09:26:31;;;;;;;11.13;2.30;;;;;;;15.88;80.25;101169.72;5074486;28;20433;-70
2022/10/08 09:28:59;;;;;;;5.77;2.00;;;;;;;15.96;79.46;101165.38;5072371;28;20465;-70
2022/10/08 09:31:30;;;;;;;6.83;2.27;;;;;;;16.00;79.00;101176.47;5072538;28;20449;-70
2022/10/08 09:34:00;;;;;;;13.20;1.93;;;;;;;15.94;78.52;101175.03;5054220;28;20482;-69
2022/10/08 09:36:34;;;;;;;7.30;1.83;;;;;;;16.02;78.85;101172.28;5054106;28;20446;-70
2022/10/08 09:39:03;;;;;;;12.10;1.87;;;;;;;16.03;79.77;101178.59;5054230;28;20427;-70
2022/10/08 09:41:29;;;;;;;8.97;1.90;;;;;;;15.95;79.78;101182.91;5073774;28;20576;-70
2022/10/08 09:44:19;;;;;;;15.90;3.00;;;;;;;15.95;79.10;101185.66;5072927;28;20489;-70
2022/10/08 09:46:47;;;;;;;5.00;1.50;;;;;;;16.00;79.07;101195.63;5072436;28;20809;-70
2022/10/08 09:49:27;;;;;;;18.77;2.80;;;;;;;15.99;80.06;101194.81;5073799;28;20434;-70
2022/10/08 09:51:56;;;;;;;9.10;2.20;;;;;;;15.98;79.48;101190.47;5072844;28;20464;-70
2022/10/08 09:54:25;;;;;;;8.63;1.63;;;;;;;16.03;78.18;101200.44;5073453;28;20465;-69
2022/10/08 09:56:54;;;;;;;7.73;2.60;;;;;;;16.11;78.55;101192.25;5072650;28;20472;-69
2022/10/08 09:59:24;;;;;;;7.50;1.83;;;;;;;16.15;77.38;101195.91;5073274;28;20441;-69
2022/10/08 10:01:52;;;;;;;4.40;1.63;;;;;;;16.04;78.98;101185.66;5072011;28;20477;-69
2022/10/08 10:04:29;;;;;;;7.07;2.20;;;;;;;16.13;78.39;101191.91;5072010;28;20468;-69
2022/10/08 10:06:55;;;;;;;4.70;1.80;;;;;;;16.03;78.49;101182.13;5073204;28;20441;-69
2022/10/08 10:09:30;;;;;;;6.17;2.13;;;;;;;16.05;78.84;101192.72;5070368;28;20809;-69
2022/10/08 10:12:02;;;;;;;7.40;2.30;;;;;;;16.02;79.26;101194.16;5072377;28;20456;-69
2022/10/08 10:14:40;;;;;;;7.33;1.83;;;;;;;15.89;79.75;101195.94;5070752;28;21001;-68
2022/10/08 10:17:14;;;;;;;4.03;1.53;;;;;;;15.96;79.44;101200.13;5073074;28;20921;-69
2022/10/08 10:19:49;;;;;;;6.37;1.83;;;;;;;15.96;78.64;101200.13;5071584;28;20956;-69
2022/10/08 10:22:23;;;;;;;4.57;1.80;;;;;;;15.91;78.54;101203.00;5071790;28;22326;-69
2022/10/08 10:24:55;;;;;;;5.27;1.90;;;;;;;15.93;78.89;101195.28;5072129;28;20488;-70
2022/10/08 10:27:28;;;;;;;6.70;1.97;;;;;;;15.94;78.73;101197.72;5071898;28;20454;-69
2022/10/08 10:30:04;;;;;;;7.43;1.67;;;;;;;15.93;79.67;101198.03;5073288;28;20413;-69
2022/10/08 10:32:37;;;;;;;4.10;1.63;;;;;;;15.92;79.29;101202.69;5072298;28;20457;-69
2022/10/08 10:35:10;;;;;;;11.13;1.93;;;;;;;15.92;78.99;101208.16;5072275;28;20488;-69
2022/10/08 10:37:44;;;;;;;4.00;1.77;;;;;;;15.92;79.41;101210.88;5072564;28;20541;-69
2022/10/08 10:40:23;;;;;;;5.53;1.97;;;;;;;15.87;80.22;101209.13;5073184;28;20853;-69
2022/10/08 10:42:56;;;;;;;6.27;2.10;;;;;;;15.82;80.37;101201.06;5071224;28;20483;-68
2022/10/08 10:45:27;;;;;;;11.50;2.47;;;;;;;15.80;80.70;101206.03;5070997;28;20809;-68
2022/10/08 10:47:54;;;;;;;4.33;1.63;;;;;;;15.81;80.00;101202.22;5073058;28;20458;-69
2022/10/08 10:50:28;;;;;;;21.87;2.93;;;;;;;15.71;80.16;101199.78;5071924;28;20465;-72
2022/10/08 10:53:03;;;;;;;6.47;2.20;;;;;;;15.66;80.43;101210.88;5073052;28;20422;-72
2022/10/08 10:55:34;;;;;;;6.20;1.40;;;;;;;15.72;80.01;101211.53;5070060;28;20957;-70
2022/10/08 10:58:25;;;;;;;5.50;1.97;;;;;;;15.70;79.85;101214.56;5056208;28;20946;-70
2022/10/08 11:00:59;;;;;;;6.03;2.50;;;;;;;15.74;79.73;101215.53;5072801;28;20458;-70
2022/10/08 11:03:36;;;;;;;5.23;2.17;;;;;;;15.66;80.64;101219.06;5071640;28;20481;-70
2022/10/08 11:06:18;;;;;;;8.93;2.30;;;;;;;15.63;80.61;101215.03;5070594;28;20460;-70
2022/10/08 11:08:54;;;;;;;4.67;2.20;;;;;;;15.69;81.20;101218.44;5071755;28;20457;-70
2022/10/08 11:11:28;;;;;;;4.60;1.87;;;;;;;15.71;80.55;101216.16;5072961;28;20475;-70
2022/10/08 11:14:06;;;;;;;5.70;1.67;;;;;;;15.64;80.90;101211.19;5071132;28;20477;-70
2022/10/08 11:16:47;;;;;;;3.93;1.53;;;;;;;15.60;81.14;101215.66;5071447;28;20441;-70
2022/10/08 11:19:32;;;;;;;3.93;1.50;;;;;;;15.59;81.09;101216.78;5076469;28;20995;-70
2022/10/08 11:22:06;;;;;;;8.03;1.67;;;;;;;15.63;81.05;101216.94;5075253;28;20851;-69
2022/10/08 11:24:51;;;;;;;4.90;1.67;;;;;;;15.61;81.24;101217.25;5075021;28;20499;-69
2022/10/08 11:27:28;;;;;;;8.13;1.80;;;;;;;15.69;80.73;101223.88;5075572;28;20447;-70
2022/10/08 11:30:01;;;;;;;7.30;1.67;;;;;;;15.67;80.81;101220.69;5074277;28;20986;-70
2022/10/08 11:32:29;;;;;;;12.80;2.33;;;;;;;15.70;81.64;101221.97;5071222;28;20457;-69
2022/10/08 11:35:12;;;;;;;5.27;2.00;;;;;;;15.78;81.02;101213.78;5073738;28;20477;-70
2022/10/08 11:40:07;;;;;;;4.33;1.43;;;;;;;15.88;81.00;101215.38;5088109;27;20942;-69
2022/10/08 11:42:39;;;;;;;18.47;2.53;;;;;;;15.86;80.01;101215.72;5090283;28;20839;-69